PWSweather.com
Personal Weather Stations
Station Observations
BREAKEY01
Lévis, Breakeyville, QC G0S 1E1

LévisBreakeyville, QC G0S 1E1

Lat: 46.681, Lon: -71.224

Elevation: 328

Station Type: Davis Vantage Pro2

http://www.meteobreakey.webou.net/topic/index.php

Latest ConditionsUpdated 5:27:03 AM EDT Sunday, Jul 5, 2015
Currently Today's Max Today's Min Today's Average
Temperature 61.2°F16.2°C 63.5°F17.5°C 61.2°F16.2°C 62.3°F16.8°C
Dew Point 59.2°F15.1°C 59.4°F15.2°C 57.0°F13.9°C 58.4°F14.7°C
Winds 2.9 mph WSW4.7 kmh WSW 4.9 mph WSW7.9 kmh WSW - 1.8 mph 2.9 kmh
Wind Gusts 4.0 mph6.4 kmh 6.9 mph11.1 kmh - -
Humidity 93% 93% 80% 87%
Pressure 29.93 in1013.5 mb 29.93 in1013.5 mb 29.90 in1012.5 mb -
Hour Temp Dew Point Humidity Winds Wind Gusts Pressure Precip Precip Rate Daily Precip Total
05:27 AM 61.2°F16.2°C 59.2°F15.1°C 93% 2.9 mph WSW4.7 kmh WSW 4.0 mph6.4 kmh 29.93 in1013.5 mb - 0.00 in0.0 mm 0.00 in0.0 mm
05:22 AM 61.2°F16.2°C 59.2°F15.1°C 93% 2.9 mph SW4.7 kmh SW 2.9 mph4.7 kmh 29.93 in1013.5 mb - 0.00 in0.0 mm 0.00 in0.0 mm
05:17 AM 61.2°F16.2°C 59.2°F15.1°C 93% 2.9 mph W4.7 kmh W 2.0 mph3.2 kmh 29.93 in1013.5 mb - 0.00 in0.0 mm 0.00 in0.0 mm
05:12 AM 61.2°F16.2°C 59.2°F15.1°C 93% 2.9 mph WSW4.7 kmh WSW 2.0 mph3.2 kmh 29.93 in1013.5 mb - 0.00 in0.0 mm 0.00 in0.0 mm
05:07 AM 61.2°F16.2°C 59.2°F15.1°C 93% 2.9 mph WSW4.7 kmh WSW 0.9 mph1.4 kmh 29.93 in1013.5 mb - 0.00 in0.0 mm 0.00 in0.0 mm
05:02 AM 61.2°F16.2°C 59.2°F15.1°C 93% 2.9 mph W4.7 kmh W 2.0 mph3.2 kmh 29.93 in1013.5 mb - 0.00 in0.0 mm 0.00 in0.0 mm
04:57 AM 61.2°F16.2°C 59.2°F15.1°C 93% 2.9 mph WSW4.7 kmh WSW 4.0 mph6.4 kmh 29.93 in1013.5 mb - 0.00 in0.0 mm 0.00 in0.0 mm
04:52 AM 61.2°F16.2°C 59.2°F15.1°C 93% 2.0 mph WSW3.2 kmh WSW -- 29.92 in1013.2 mb - 0.00 in0.0 mm 0.00 in0.0 mm
04:47 AM 61.2°F16.2°C 59.2°F15.1°C 93% 0.9 mph W1.4 kmh W 0.9 mph1.4 kmh 29.93 in1013.5 mb - 0.00 in0.0 mm 0.00 in0.0 mm
04:42 AM 61.2°F16.2°C 59.2°F15.1°C 93% Calm Calm 2.0 mph3.2 kmh 29.92 in1013.2 mb - 0.00 in0.0 mm 0.00 in0.0 mm
04:37 AM 61.3°F16.3°C 59.4°F15.2°C 93% 0.9 mph SW1.4 kmh SW -- 29.92 in1013.2 mb - 0.00 in0.0 mm 0.00 in0.0 mm
04:32 AM 61.3°F16.3°C 59.0°F15.0°C 92% 0.9 mph SW1.4 kmh SW -- 29.92 in1013.2 mb - 0.00 in0.0 mm 0.00 in0.0 mm
04:27 AM 61.3°F16.3°C 59.0°F15.0°C 92% 2.0 mph SW3.2 kmh SW 0.9 mph1.4 kmh 29.92 in1013.2 mb - 0.00 in0.0 mm 0.00 in0.0 mm
04:22 AM 61.5°F16.4°C 59.2°F15.1°C 92% 0.9 mph SW1.4 kmh SW 0.9 mph1.4 kmh 29.92 in1013.2 mb - 0.00 in0.0 mm 0.00 in0.0 mm
04:17 AM 61.5°F16.4°C 59.2°F15.1°C 92% 0.9 mph SW1.4 kmh SW 2.0 mph3.2 kmh 29.92 in1013.2 mb - 0.00 in0.0 mm 0.00 in0.0 mm
04:12 AM 61.5°F16.4°C 59.2°F15.1°C 92% 0.9 mph SSW1.4 kmh SSW -- 29.91 in1012.9 mb - 0.00 in0.0 mm 0.00 in0.0 mm
04:07 AM 61.7°F16.5°C 59.4°F15.2°C 92% 2.0 mph S3.2 kmh S 2.0 mph3.2 kmh 29.91 in1012.9 mb - 0.00 in0.0 mm 0.00 in0.0 mm
04:02 AM 61.7°F16.5°C 59.4°F15.2°C 92% 0.9 mph WSW1.4 kmh WSW 0.9 mph1.4 kmh 29.91 in1012.9 mb - 0.00 in0.0 mm 0.00 in0.0 mm
03:57 AM 61.7°F16.5°C 59.4°F15.2°C 92% 2.0 mph SSW3.2 kmh SSW 2.0 mph3.2 kmh 29.91 in1012.9 mb - 0.00 in0.0 mm 0.00 in0.0 mm
03:52 AM 61.5°F16.4°C 59.2°F15.1°C 92% 2.0 mph WSW3.2 kmh WSW 2.0 mph3.2 kmh 29.91 in1012.9 mb - 0.00 in0.0 mm 0.00 in0.0 mm
03:47 AM 61.5°F16.4°C 59.2°F15.1°C 92% 2.0 mph WSW3.2 kmh WSW -- 29.91 in1012.9 mb - 0.00 in0.0 mm 0.00 in0.0 mm
03:42 AM 61.3°F16.3°C 59.0°F15.0°C 92% 0.9 mph SW1.4 kmh SW 4.0 mph6.4 kmh 29.91 in1012.9 mb - 0.00 in0.0 mm 0.00 in0.0 mm
03:37 AM 61.3°F16.3°C 59.0°F15.0°C 92% 0.9 mph SW1.4 kmh SW -- 29.91 in1012.9 mb - 0.00 in0.0 mm 0.00 in0.0 mm
03:32 AM 61.3°F16.3°C 58.6°F14.8°C 91% 0.9 mph WSW1.4 kmh WSW -- 29.91 in1012.9 mb - 0.00 in0.0 mm 0.00 in0.0 mm
03:27 AM 61.2°F16.2°C 58.5°F14.7°C 91% 0.9 mph SW1.4 kmh SW -- 29.91 in1012.9 mb - 0.00 in0.0 mm 0.00 in0.0 mm
03:22 AM 61.3°F16.3°C 58.6°F14.8°C 91% 0.9 mph SW1.4 kmh SW 0.9 mph1.4 kmh 29.91 in1012.9 mb - 0.00 in0.0 mm 0.00 in0.0 mm
03:17 AM 61.3°F16.3°C 58.5°F14.7°C 90% 0.9 mph SW1.4 kmh SW -- 29.91 in1012.9 mb - 0.00 in0.0 mm 0.00 in0.0 mm
03:12 AM 61.5°F16.4°C 58.6°F14.8°C 90% Calm Calm -- 29.91 in1012.9 mb - 0.00 in0.0 mm 0.00 in0.0 mm
03:07 AM 61.9°F16.6°C 58.6°F14.8°C 89% Calm Calm -- 29.91 in1012.9 mb - 0.00 in0.0 mm 0.00 in0.0 mm
03:02 AM 62.1°F16.7°C 58.8°F14.9°C 89% 0.9 mph WSW1.4 kmh WSW -- 29.91 in1012.9 mb - 0.00 in0.0 mm 0.00 in0.0 mm
02:57 AM 62.2°F16.8°C 58.6°F14.8°C 88% 0.9 mph WSW1.4 kmh WSW 2.0 mph3.2 kmh 29.91 in1012.9 mb - 0.00 in0.0 mm 0.00 in0.0 mm
02:52 AM 62.2°F16.8°C 58.6°F14.8°C 88% 0.9 mph SW1.4 kmh SW -- 29.91 in1012.9 mb - 0.00 in0.0 mm 0.00 in0.0 mm
02:47 AM 62.4°F16.9°C 58.8°F14.9°C 88% 2.0 mph WSW3.2 kmh WSW 0.9 mph1.4 kmh 29.91 in1012.9 mb - 0.00 in0.0 mm 0.00 in0.0 mm
02:42 AM 62.4°F16.9°C 58.8°F14.9°C 88% 0.9 mph WSW1.4 kmh WSW 0.9 mph1.4 kmh 29.91 in1012.9 mb - 0.00 in0.0 mm 0.00 in0.0 mm
02:37 AM 62.4°F16.9°C 58.5°F14.7°C 87% 0.9 mph W1.4 kmh W 2.0 mph3.2 kmh 29.91 in1012.9 mb - 0.00 in0.0 mm 0.00 in0.0 mm
02:32 AM 62.6°F17.0°C 58.6°F14.8°C 87% 2.0 mph W3.2 kmh W -- 29.91 in1012.9 mb - 0.00 in0.0 mm 0.00 in0.0 mm
02:27 AM 62.8°F17.1°C 58.8°F14.9°C 87% 2.0 mph WSW3.2 kmh WSW -- 29.91 in1012.9 mb - 0.00 in0.0 mm 0.00 in0.0 mm
02:22 AM 62.8°F17.1°C 58.5°F14.7°C 86% 2.0 mph W3.2 kmh W 6.0 mph9.7 kmh 29.91 in1012.9 mb - 0.00 in0.0 mm 0.00 in0.0 mm
02:17 AM 63.0°F17.2°C 58.6°F14.8°C 86% 2.9 mph WSW4.7 kmh WSW -- 29.91 in1012.9 mb - 0.00 in0.0 mm 0.00 in0.0 mm
02:12 AM 63.1°F17.3°C 58.8°F14.9°C 86% 4.0 mph WSW6.4 kmh WSW 2.0 mph3.2 kmh 29.90 in1012.5 mb - 0.00 in0.0 mm 0.00 in0.0 mm
02:07 AM 63.1°F17.3°C 58.8°F14.9°C 86% 4.0 mph W6.4 kmh W 2.9 mph4.7 kmh 29.90 in1012.5 mb - 0.00 in0.0 mm 0.00 in0.0 mm
02:02 AM 63.3°F17.4°C 58.8°F14.9°C 85% 2.9 mph WSW4.7 kmh WSW 0.9 mph1.4 kmh 29.91 in1012.9 mb - 0.00 in0.0 mm 0.00 in0.0 mm
01:57 AM 63.3°F17.4°C 58.8°F14.9°C 85% 2.9 mph WSW4.7 kmh WSW -- 29.90 in1012.5 mb - 0.00 in0.0 mm 0.00 in0.0 mm
01:52 AM 63.5°F17.5°C 58.8°F14.9°C 85% 4.9 mph WSW7.9 kmh WSW 6.9 mph11.1 kmh 29.90 in1012.5 mb - 0.00 in0.0 mm 0.00 in0.0 mm
01:47 AM 63.3°F17.4°C 58.8°F14.9°C 85% 4.9 mph WSW7.9 kmh WSW 4.0 mph6.4 kmh 29.90 in1012.5 mb - 0.00 in0.0 mm 0.00 in0.0 mm
01:42 AM 63.1°F17.3°C 58.6°F14.8°C 85% 4.9 mph SW7.9 kmh SW 4.0 mph6.4 kmh 29.90 in1012.5 mb - 0.00 in0.0 mm 0.00 in0.0 mm
01:37 AM 63.0°F17.2°C 58.1°F14.5°C 84% 4.9 mph WSW7.9 kmh WSW 0.9 mph1.4 kmh 29.90 in1012.5 mb - 0.00 in0.0 mm 0.00 in0.0 mm
01:32 AM 63.0°F17.2°C 57.7°F14.3°C 83% 4.0 mph WSW6.4 kmh WSW 4.0 mph6.4 kmh 29.90 in1012.5 mb - 0.00 in0.0 mm 0.00 in0.0 mm
01:27 AM 62.8°F17.1°C 57.6°F14.2°C 83% 2.9 mph WSW4.7 kmh WSW 2.0 mph3.2 kmh 29.90 in1012.5 mb - 0.00 in0.0 mm 0.00 in0.0 mm
01:22 AM 63.0°F17.2°C 57.4°F14.1°C 82% 2.9 mph SW4.7 kmh SW 2.9 mph4.7 kmh 29.90 in1012.5 mb - 0.00 in0.0 mm 0.00 in0.0 mm
01:17 AM 63.0°F17.2°C 57.4°F14.1°C 82% 2.9 mph WSW4.7 kmh WSW 2.9 mph4.7 kmh 29.90 in1012.5 mb - 0.00 in0.0 mm 0.00 in0.0 mm
01:12 AM 63.0°F17.2°C 57.0°F13.9°C 81% 2.9 mph SW4.7 kmh SW 2.0 mph3.2 kmh 29.90 in1012.5 mb - 0.00 in0.0 mm 0.00 in0.0 mm
01:07 AM 63.0°F17.2°C 57.0°F13.9°C 81% 2.9 mph SW4.7 kmh SW 4.0 mph6.4 kmh 29.90 in1012.5 mb - 0.00 in0.0 mm 0.00 in0.0 mm
01:02 AM 63.1°F17.3°C 57.2°F14.0°C 81% 2.0 mph SW3.2 kmh SW 0.9 mph1.4 kmh 29.90 in1012.5 mb - 0.00 in0.0 mm 0.00 in0.0 mm
12:57 AM 63.3°F17.4°C 57.4°F14.1°C 81% 0.9 mph WSW1.4 kmh WSW 2.0 mph3.2 kmh 29.90 in1012.5 mb - 0.00 in0.0 mm 0.00 in0.0 mm
12:52 AM 63.3°F17.4°C 57.0°F13.9°C 80% 0.9 mph SSW1.4 kmh SSW 2.0 mph3.2 kmh 29.90 in1012.5 mb - 0.00 in0.0 mm 0.00 in0.0 mm
12:47 AM 63.3°F17.4°C 57.0°F13.9°C 80% 0.9 mph SW1.4 kmh SW 2.0 mph3.2 kmh 29.90 in1012.5 mb - 0.00 in0.0 mm 0.00 in0.0 mm
12:42 AM 63.3°F17.4°C 57.0°F13.9°C 80% 0.9 mph SW1.4 kmh SW 0.9 mph1.4 kmh 29.90 in1012.5 mb - 0.00 in0.0 mm 0.00 in0.0 mm
12:37 AM 63.3°F17.4°C 57.4°F14.1°C 81% 0.9 mph SW1.4 kmh SW -- 29.90 in1012.5 mb - 0.00 in0.0 mm 0.00 in0.0 mm
12:32 AM 63.1°F17.3°C 57.2°F14.0°C 81% 0.9 mph SW1.4 kmh SW 2.0 mph3.2 kmh 29.90 in1012.5 mb - 0.00 in0.0 mm 0.00 in0.0 mm
12:27 AM 63.1°F17.3°C 57.2°F14.0°C 81% 0.9 mph S1.4 kmh S -- 29.90 in1012.5 mb - 0.00 in0.0 mm 0.00 in0.0 mm
12:22 AM 63.1°F17.3°C 57.2°F14.0°C 81% Calm Calm 0.9 mph1.4 kmh 29.91 in1012.9 mb - 0.00 in0.0 mm 0.00 in0.0 mm
12:17 AM 63.1°F17.3°C 57.2°F14.0°C 81% Calm Calm -- 29.91 in1012.9 mb - 0.00 in0.0 mm 0.00 in0.0 mm
12:12 AM 63.1°F17.3°C 57.2°F14.0°C 81% Calm Calm -- 29.91 in1012.9 mb - 0.00 in0.0 mm 0.00 in0.0 mm
12:07 AM 63.0°F17.2°C 57.0°F13.9°C 81% 0.9 mph S1.4 kmh S 0.9 mph1.4 kmh 29.91 in1012.9 mb - 0.00 in0.0 mm 0.00 in0.0 mm
12:02 AM 63.0°F17.2°C 57.0°F13.9°C 81% 0.9 mph S1.4 kmh S -- 29.91 in1012.9 mb - 0.00 in0.0 mm 0.00 in0.0 mm